Liberia, Costa Rica

8:42 AM CST on April 01, 2015 (GMT -0600)
Daniel Oduber Quiros International | | Change Station
CLOSE
Current Station
Airport
Location: Liberia,
Elevation: 262 ft
Nearby Weather Stations

Elev 262 ft 10.59 °N, 85.54 °W | Updated 42 minutes ago

Clear
Clear
84 °F
Feels Like 84 °F
N
7
Wind Variable Wind from North

Today
High -- | Low -- °F
--% Chance of Precip.
Yesterday
High -- | Low -- °F
Precip. -- in
5:39 AM 5:52 PM
Waxing Gibbous, 93% visible
Pressure 29.89 in
Visibility -9999.0 miles
Clouds
Heat Index 84 °F
Dew Point 59 °F
Humidity 42%
Rainfall 0.00 in
Snow Depth Not available.
UV Not available.
Pollen Not available.
Air Quality Not available.
Flu Activity Not available.
METAR MRLB 011400Z 35006KT CAVOK 29/15 A2989

More Conditions Fewer Conditions

Pressure 29.89 in
Visibility -9999.0 miles
Clouds
Heat Index 84 °F
Dew Point 59 °F
Humidity 42%
Rainfall 0.00 in
Snow Depth Not available.
UV Not available.
Pollen Not available.
Air Quality Not available.
Flu Activity Not available.
METAR MRLB 011400Z 35006KT CAVOK 29/15 A2989

More Conditions Fewer Conditions

10-Day Weather Forecast

Almanac

Astronomy

Apr. 01, 2015 Rise Set
Actual Time
Civil Twilight
Nautical Twilight
Astronomical Twilight
Moon
Length of Visible Light
Length of Day
Tomorrow will be .
, % of the Moon is Illuminated

Today's Extremes

Country Highs Country Lows

Community

WunderPhotos

Upload Photos

1,809,974 photos uploaded!

WunderBlogs® & News

Nearby

Air Quality

  Air Quality AQ Index Pollutant
Not available.

Snow Depth

Station Depth Elevation

Earthquake Activity

City Distance Mag. Time & Date
Minimum magnitude displayed is 2.5.

Coastal Water Temperatures

Place Temperature

Stations

Nearby Weather Stations

Station Location Temp. Windchill Dew Point Humidity Wind Precip. Elev Updated Type